sensor_id;sensor_type;location;lat;lon;timestamp;pressure;altitude;pressure_sealevel;temperature;humidity
38912;BME280;28444;48.056;14.408;2024-01-15T00:00:13;96293.78;;;-5.17;92.20
38912;BME280;28444;48.056;14.408;2024-01-15T00:02:40;96295.47;;;-4.97;92.07
38912;BME280;28444;48.056;14.408;2024-01-15T00:05:07;96283.59;;;-4.96;90.63
38912;BME280;28444;48.056;14.408;2024-01-15T00:07:34;96280.19;;;-5.02;89.79
38912;BME280;28444;48.056;14.408;2024-01-15T00:10:02;96269.28;;;-4.98;90.13
38912;BME280;28444;48.056;14.408;2024-01-15T00:12:28;96274.84;;;-4.85;89.65
38912;BME280;28444;48.056;14.408;2024-01-15T00:14:55;96257.16;;;-4.94;88.89
38912;BME280;28444;48.056;14.408;2024-01-15T00:17:22;96267.09;;;-4.94;88.96
38912;BME280;28444;48.056;14.408;2024-01-15T00:19:48;96279.69;;;-4.95;88.68
38912;BME280;28444;48.056;14.408;2024-01-15T00:22:15;96282.63;;;-4.93;88.94
38912;BME280;28444;48.056;14.408;2024-01-15T00:24:42;96277.72;;;-4.83;88.59
38912;BME280;28444;48.056;14.408;2024-01-15T00:27:09;96277.00;;;-4.84;88.32
38912;BME280;28444;48.056;14.408;2024-01-15T00:29:35;96277.00;;;-4.78;88.17
38912;BME280;28444;48.056;14.408;2024-01-15T00:32:02;96283.78;;;-4.71;88.04
38912;BME280;28444;48.056;14.408;2024-01-15T00:34:29;96297.75;;;-4.54;87.55
38912;BME280;28444;48.056;14.408;2024-01-15T00:36:55;96294.88;;;-4.56;87.74
38912;BME280;28444;48.056;14.408;2024-01-15T00:39:22;96281.75;;;-4.54;87.68
38912;BME280;28444;48.056;14.408;2024-01-15T00:41:49;96281.78;;;-4.60;88.41
38912;BME280;28444;48.056;14.408;2024-01-15T00:44:15;96277.22;;;-4.65;88.51
38912;BME280;28444;48.056;14.408;2024-01-15T00:46:46;96287.63;;;-4.67;88.84
38912;BME280;28444;48.056;14.408;2024-01-15T00:49:13;96270.16;;;-4.62;89.10
38912;BME280;28444;48.056;14.408;2024-01-15T00:51:40;96266.53;;;-4.65;89.15
38912;BME280;28444;48.056;14.408;2024-01-15T00:54:07;96258.75;;;-4.63;89.88
38912;BME280;28444;48.056;14.408;2024-01-15T00:56:34;96250.53;;;-4.65;90.12
38912;BME280;28444;48.056;14.408;2024-01-15T00:59:01;96254.13;;;-4.62;89.57
38912;BME280;28444;48.056;14.408;2024-01-15T01:01:28;96267.25;;;-4.64;90.23
38912;BME280;28444;48.056;14.408;2024-01-15T01:03:55;96267.22;;;-4.58;90.22
38912;BME280;28444;48.056;14.408;2024-01-15T01:06:22;96265.47;;;-4.50;90.13
38912;BME280;28444;48.056;14.408;2024-01-15T01:08:48;96267.47;;;-4.56;90.08
38912;BME280;28444;48.056;14.408;2024-01-15T01:11:15;96261.16;;;-4.53;90.37
38912;BME280;28444;48.056;14.408;2024-01-15T01:13:42;96256.47;;;-4.42;90.00
38912;BME280;28444;48.056;14.408;2024-01-15T01:16:09;96263.97;;;-4.34;90.26
38912;BME280;28444;48.056;14.408;2024-01-15T01:18:36;96258.44;;;-4.42;91.24
38912;BME280;28444;48.056;14.408;2024-01-15T01:21:03;96260.13;;;-4.45;92.07
38912;BME280;28444;48.056;14.408;2024-01-15T01:23:30;96271.00;;;-4.37;92.40
38912;BME280;28444;48.056;14.408;2024-01-15T01:26:01;96270.69;;;-4.22;91.30
38912;BME280;28444;48.056;14.408;2024-01-15T01:28:32;96272.91;;;-4.21;90.93
38912;BME280;28444;48.056;14.408;2024-01-15T01:31:00;96272.84;;;-4.15;91.06
38912;BME280;28444;48.056;14.408;2024-01-15T01:33:27;96275.78;;;-4.19;91.19
38912;BME280;28444;48.056;14.408;2024-01-15T01:35:54;96274.06;;;-4.16;91.69
38912;BME280;28444;48.056;14.408;2024-01-15T01:38:20;96271.16;;;-4.18;91.37
38912;BME280;28444;48.056;14.408;2024-01-15T01:40:47;96278.75;;;-4.28;91.46
38912;BME280;28444;48.056;14.408;2024-01-15T01:43:14;96258.34;;;-4.25;91.04
38912;BME280;28444;48.056;14.408;2024-01-15T01:45:40;96257.91;;;-4.35;91.57
38912;BME280;28444;48.056;14.408;2024-01-15T01:48:07;96268.38;;;-4.43;91.84
38912;BME280;28444;48.056;14.408;2024-01-15T01:50:34;96276.59;;;-4.35;92.25
38912;BME280;28444;48.056;14.408;2024-01-15T01:53:02;96271.22;;;-4.24;92.94
38912;BME280;28444;48.056;14.408;2024-01-15T01:55:31;96269.72;;;-4.19;92.81
38912;BME280;28444;48.056;14.408;2024-01-15T01:58:00;96279.91;;;-4.18;92.14
38912;BME280;28444;48.056;14.408;2024-01-15T02:00:27;96275.78;;;-4.19;91.45
38912;BME280;28444;48.056;14.408;2024-01-15T02:02:54;96278.66;;;-4.11;92.00
38912;BME280;28444;48.056;14.408;2024-01-15T02:05:22;96268.94;;;-4.08;91.25
38912;BME280;28444;48.056;14.408;2024-01-15T02:07:49;96262.41;;;-4.13;91.55
38912;BME280;28444;48.056;14.408;2024-01-15T02:10:16;96266.03;;;-4.11;92.18
38912;BME280;28444;48.056;14.408;2024-01-15T02:12:43;96258.78;;;-4.16;91.53
38912;BME280;28444;48.056;14.408;2024-01-15T02:15:10;96260.47;;;-4.18;91.68
38912;BME280;28444;48.056;14.408;2024-01-15T02:18:03;96255.66;;;-4.20;92.38
38912;BME280;28444;48.056;14.408;2024-01-15T02:20:31;96261.47;;;-4.21;93.08
38912;BME280;28444;48.056;14.408;2024-01-15T02:23:09;96271.09;;;-4.07;92.72
38912;BME280;28444;48.056;14.408;2024-01-15T02:25:44;96262.81;;;-3.98;92.79
38912;BME280;28444;48.056;14.408;2024-01-15T02:28:14;96261.09;;;-3.95;92.72
38912;BME280;28444;48.056;14.408;2024-01-15T02:30:42;96260.56;;;-3.88;93.16
38912;BME280;28444;48.056;14.408;2024-01-15T02:33:10;96258.75;;;-3.74;93.06
38912;BME280;28444;48.056;14.408;2024-01-15T02:35:37;96255.59;;;-3.73;92.49
38912;BME280;28444;48.056;14.408;2024-01-15T02:38:05;96253.81;;;-3.65;93.22
38912;BME280;28444;48.056;14.408;2024-01-15T02:40:32;96253.81;;;-3.59;93.37
38912;BME280;28444;48.056;14.408;2024-01-15T02:42:59;96255.94;;;-3.52;92.79
38912;BME280;28444;48.056;14.408;2024-01-15T02:45:26;96256.31;;;-3.42;92.22
38912;BME280;28444;48.056;14.408;2024-01-15T02:47:53;96258.41;;;-3.29;92.53
38912;BME280;28444;48.056;14.408;2024-01-15T02:50:20;96267.09;;;-3.23;92.17
38912;BME280;28444;48.056;14.408;2024-01-15T02:52:47;96264.63;;;-3.16;91.39
38912;BME280;28444;48.056;14.408;2024-01-15T02:55:14;96261.44;;;-3.14;90.25
38912;BME280;28444;48.056;14.408;2024-01-15T02:57:41;96262.16;;;-3.13;91.10
38912;BME280;28444;48.056;14.408;2024-01-15T03:00:08;96256.06;;;-3.14;90.22
38912;BME280;28444;48.056;14.408;2024-01-15T03:02:38;96259.72;;;-3.11;90.33
38912;BME280;28444;48.056;14.408;2024-01-15T03:05:14;96246.53;;;-3.09;90.58
38912;BME280;28444;48.056;14.408;2024-01-15T03:07:41;96247.94;;;-3.03;90.70
38912;BME280;28444;48.056;14.408;2024-01-15T03:10:08;96248.50;;;-2.85;91.27
38912;BME280;28444;48.056;14.408;2024-01-15T03:12:35;96239.25;;;-2.66;90.38
38912;BME280;28444;48.056;14.408;2024-01-15T03:15:02;96240.09;;;-2.52;90.13
38912;BME280;28444;48.056;14.408;2024-01-15T03:17:29;96257.19;;;-2.36;89.81
38912;BME280;28444;48.056;14.408;2024-01-15T03:19:55;96264.56;;;-2.23;89.25
38912;BME280;28444;48.056;14.408;2024-01-15T03:22:22;96278.31;;;-2.13;88.26
38912;BME280;28444;48.056;14.408;2024-01-15T03:24:49;96281.06;;;-2.00;87.58
38912;BME280;28444;48.056;14.408;2024-01-15T03:27:16;96280.47;;;-1.93;86.98
38912;BME280;28444;48.056;14.408;2024-01-15T03:29:43;96279.47;;;-1.90;86.30
38912;BME280;28444;48.056;14.408;2024-01-15T03:32:09;96280.53;;;-1.80;85.77
38912;BME280;28444;48.056;14.408;2024-01-15T03:34:36;96292.94;;;-1.77;85.92
38912;BME280;28444;48.056;14.408;2024-01-15T03:37:03;96300.09;;;-1.66;85.45
38912;BME280;28444;48.056;14.408;2024-01-15T03:39:30;96308.75;;;-1.60;84.76
38912;BME280;28444;48.056;14.408;2024-01-15T03:41:56;96312.31;;;-1.52;85.09
38912;BME280;28444;48.056;14.408;2024-01-15T03:44:24;96315.38;;;-1.61;85.35
38912;BME280;28444;48.056;14.408;2024-01-15T03:46:50;96325.38;;;-1.61;85.81
38912;BME280;28444;48.056;14.408;2024-01-15T03:49:17;96320.41;;;-1.71;86.60
38912;BME280;28444;48.056;14.408;2024-01-15T03:51:44;96315.09;;;-1.76;86.84
38912;BME280;28444;48.056;14.408;2024-01-15T03:54:11;96316.34;;;-1.77;86.29
38912;BME280;28444;48.056;14.408;2024-01-15T03:56:38;96325.25;;;-1.69;86.17
38912;BME280;28444;48.056;14.408;2024-01-15T03:59:04;96337.41;;;-1.87;86.32
38912;BME280;28444;48.056;14.408;2024-01-15T04:01:31;96330.75;;;-1.80;86.82
38912;BME280;28444;48.056;14.408;2024-01-15T04:03:58;96331.41;;;-1.93;87.02
38912;BME280;28444;48.056;14.408;2024-01-15T04:06:24;96338.22;;;-1.92;87.06
38912;BME280;28444;48.056;14.408;2024-01-15T04:08:51;96336.03;;;-1.94;87.03
38912;BME280;28444;48.056;14.408;2024-01-15T04:11:18;96338.22;;;-1.92;86.04
38912;BME280;28444;48.056;14.408;2024-01-15T04:13:44;96328.00;;;-1.94;85.71
38912;BME280;28444;48.056;14.408;2024-01-15T04:16:11;96317.94;;;-2.06;86.19
38912;BME280;28444;48.056;14.408;2024-01-15T04:18:38;96313.31;;;-2.06;85.83
38912;BME280;28444;48.056;14.408;2024-01-15T04:21:05;96312.50;;;-2.01;86.09
38912;BME280;28444;48.056;14.408;2024-01-15T04:23:32;96325.31;;;-2.12;85.83
38912;BME280;28444;48.056;14.408;2024-01-15T04:25:59;96318.09;;;-2.17;86.66
38912;BME280;28444;48.056;14.408;2024-01-15T04:28:27;96306.56;;;-2.12;86.42
38912;BME280;28444;48.056;14.408;2024-01-15T04:30:53;96320.47;;;-2.14;86.40
38912;BME280;28444;48.056;14.408;2024-01-15T04:33:20;96315.53;;;-2.29;87.07
38912;BME280;28444;48.056;14.408;2024-01-15T04:35:48;96316.69;;;-2.05;86.25
38912;BME280;28444;48.056;14.408;2024-01-15T04:38:15;96320.97;;;-1.97;85.43
38912;BME280;28444;48.056;14.408;2024-01-15T04:40:42;96313.31;;;-2.06;86.08
38912;BME280;28444;48.056;14.408;2024-01-15T04:43:08;96317.78;;;-2.14;86.58
38912;BME280;28444;48.056;14.408;2024-01-15T04:45:35;96320.97;;;-2.15;86.24
38912;BME280;28444;48.056;14.408;2024-01-15T04:48:02;96320.09;;;-2.05;86.35
38912;BME280;28444;48.056;14.408;2024-01-15T04:50:29;96317.00;;;-2.09;86.14
38912;BME280;28444;48.056;14.408;2024-01-15T04:52:56;96324.16;;;-2.17;86.49
38912;BME280;28444;48.056;14.408;2024-01-15T04:55:22;96324.50;;;-2.26;87.14
38912;BME280;28444;48.056;14.408;2024-01-15T04:57:49;96322.63;;;-2.31;87.60
38912;BME280;28444;48.056;14.408;2024-01-15T05:00:16;96327.03;;;-2.34;87.33
38912;BME280;28444;48.056;14.408;2024-01-15T05:02:43;96323.34;;;-2.31;87.43
38912;BME280;28444;48.056;14.408;2024-01-15T05:05:09;96326.16;;;-2.23;87.43
38912;BME280;28444;48.056;14.408;2024-01-15T05:07:36;96332.03;;;-2.25;87.21
38912;BME280;28444;48.056;14.408;2024-01-15T05:10:03;96339.50;;;-2.17;87.04
38912;BME280;28444;48.056;14.408;2024-01-15T05:12:30;96340.00;;;-2.19;87.23
38912;BME280;28444;48.056;14.408;2024-01-15T05:14:57;96335.50;;;-2.11;86.97
38912;BME280;28444;48.056;14.408;2024-01-15T05:17:23;96348.47;;;-2.15;86.75
38912;BME280;28444;48.056;14.408;2024-01-15T05:19:50;96352.00;;;-2.26;86.82
38912;BME280;28444;48.056;14.408;2024-01-15T05:22:17;96349.84;;;-2.27;87.19
38912;BME280;28444;48.056;14.408;2024-01-15T05:24:43;96349.19;;;-2.33;86.71
38912;BME280;28444;48.056;14.408;2024-01-15T05:27:10;96347.22;;;-2.33;87.18
38912;BME280;28444;48.056;14.408;2024-01-15T05:29:38;96337.91;;;-2.26;86.78
38912;BME280;28444;48.056;14.408;2024-01-15T05:32:05;96332.97;;;-2.22;86.52
38912;BME280;28444;48.056;14.408;2024-01-15T05:34:31;96339.97;;;-2.38;86.95
38912;BME280;28444;48.056;14.408;2024-01-15T05:36:58;96336.88;;;-2.23;87.38
38912;BME280;28444;48.056;14.408;2024-01-15T05:39:25;96346.97;;;-2.10;86.05
38912;BME280;28444;48.056;14.408;2024-01-15T05:41:52;96347.97;;;-2.13;86.28
38912;BME280;28444;48.056;14.408;2024-01-15T05:44:18;96349.56;;;-2.24;87.17
38912;BME280;28444;48.056;14.408;2024-01-15T05:46:45;96356.31;;;-2.17;86.20
38912;BME280;28444;48.056;14.408;2024-01-15T05:49:12;96356.59;;;-2.21;86.62
38912;BME280;28444;48.056;14.408;2024-01-15T05:51:38;96351.44;;;-2.19;85.97
38912;BME280;28444;48.056;14.408;2024-01-15T05:54:06;96352.44;;;-2.22;86.60
38912;BME280;28444;48.056;14.408;2024-01-15T05:56:32;96350.44;;;-2.15;87.16
38912;BME280;28444;48.056;14.408;2024-01-15T05:58:59;96344.94;;;-2.04;86.29
38912;BME280;28444;48.056;14.408;2024-01-15T06:01:26;96345.09;;;-1.97;85.62
38912;BME280;28444;48.056;14.408;2024-01-15T06:03:52;96342.41;;;-1.97;85.09
38912;BME280;28444;48.056;14.408;2024-01-15T06:06:19;96330.97;;;-1.97;84.71
38912;BME280;28444;48.056;14.408;2024-01-15T06:08:46;96330.19;;;-1.92;84.91
38912;BME280;28444;48.056;14.408;2024-01-15T06:11:13;96330.38;;;-1.90;84.83
38912;BME280;28444;48.056;14.408;2024-01-15T06:13:39;96324.31;;;-1.90;85.28
38912;BME280;28444;48.056;14.408;2024-01-15T06:16:15;96325.47;;;-1.86;84.95
38912;BME280;28444;48.056;14.408;2024-01-15T06:18:49;96320.53;;;-1.82;84.08
38912;BME280;28444;48.056;14.408;2024-01-15T06:21:16;96323.44;;;-1.80;83.80
38912;BME280;28444;48.056;14.408;2024-01-15T06:23:43;96314.28;;;-1.71;83.01
38912;BME280;28444;48.056;14.408;2024-01-15T06:26:11;96300.88;;;-1.71;82.39
38912;BME280;28444;48.056;14.408;2024-01-15T06:28:38;96299.38;;;-1.66;82.51
38912;BME280;28444;48.056;14.408;2024-01-15T06:31:08;96311.44;;;-1.60;81.80
38912;BME280;28444;48.056;14.408;2024-01-15T06:33:35;96311.53;;;-1.65;82.26
38912;BME280;28444;48.056;14.408;2024-01-15T06:36:02;96315.50;;;-1.53;81.77
38912;BME280;28444;48.056;14.408;2024-01-15T06:38:29;96312.75;;;-1.48;81.59
38912;BME280;28444;48.056;14.408;2024-01-15T06:40:56;96300.59;;;-1.49;81.91
38912;BME280;28444;48.056;14.408;2024-01-15T06:43:22;96305.00;;;-1.51;82.24
38912;BME280;28444;48.056;14.408;2024-01-15T06:45:49;96305.66;;;-1.45;81.90
38912;BME280;28444;48.056;14.408;2024-01-15T06:48:16;96307.72;;;-1.38;81.65
38912;BME280;28444;48.056;14.408;2024-01-15T06:50:43;96301.50;;;-1.46;82.22
38912;BME280;28444;48.056;14.408;2024-01-15T06:53:10;96303.81;;;-1.37;81.78
38912;BME280;28444;48.056;14.408;2024-01-15T06:55:38;96307.72;;;-1.38;82.06
38912;BME280;28444;48.056;14.408;2024-01-15T06:58:05;96304.75;;;-1.34;81.66
38912;BME280;28444;48.056;14.408;2024-01-15T07:00:31;96308.34;;;-1.32;82.12
38912;BME280;28444;48.056;14.408;2024-01-15T07:02:58;96306.78;;;-1.40;82.86
38912;BME280;28444;48.056;14.408;2024-01-15T07:05:25;96308.66;;;-1.35;82.27
38912;BME280;28444;48.056;14.408;2024-01-15T07:07:52;96310.84;;;-1.34;82.66
38912;BME280;28444;48.056;14.408;2024-01-15T07:10:18;96315.91;;;-1.30;83.07
38912;BME280;28444;48.056;14.408;2024-01-15T07:12:45;96308.41;;;-1.18;81.97
38912;BME280;28444;48.056;14.408;2024-01-15T07:15:12;96318.06;;;-1.29;82.39
38912;BME280;28444;48.056;14.408;2024-01-15T07:17:38;96320.31;;;-1.33;83.08
38912;BME280;28444;48.056;14.408;2024-01-15T07:20:09;96320.22;;;-1.27;82.86
38912;BME280;28444;48.056;14.408;2024-01-15T07:22:36;96323.13;;;-1.25;82.93
38912;BME280;28444;48.056;14.408;2024-01-15T07:25:04;96321.88;;;-1.24;83.23
38912;BME280;28444;48.056;14.408;2024-01-15T07:27:34;96312.09;;;-1.22;83.23
38912;BME280;28444;48.056;14.408;2024-01-15T07:30:01;96319.94;;;-1.24;83.86
38912;BME280;28444;48.056;14.408;2024-01-15T07:32:30;96317.69;;;-1.19;84.03
38912;BME280;28444;48.056;14.408;2024-01-15T07:34:58;96318.59;;;-1.17;84.26
38912;BME280;28444;48.056;14.408;2024-01-15T07:37:25;96318.22;;;-1.08;84.10
38912;BME280;28444;48.056;14.408;2024-01-15T07:39:52;96317.81;;;-1.12;84.94
38912;BME280;28444;48.056;14.408;2024-01-15T07:42:19;96323.97;;;-1.17;85.36
38912;BME280;28444;48.056;14.408;2024-01-15T07:44:45;96328.72;;;-1.23;86.05
38912;BME280;28444;48.056;14.408;2024-01-15T07:47:13;96311.78;;;-1.18;86.34
38912;BME280;28444;48.056;14.408;2024-01-15T07:49:39;96317.59;;;-1.14;87.07
38912;BME280;28444;48.056;14.408;2024-01-15T07:52:06;96317.09;;;-1.12;87.91
38912;BME280;28444;48.056;14.408;2024-01-15T07:54:33;96315.72;;;-1.19;88.87
38912;BME280;28444;48.056;14.408;2024-01-15T07:57:01;96320.22;;;-1.27;89.59
38912;BME280;28444;48.056;14.408;2024-01-15T07:59:31;96324.69;;;-1.16;90.41
38912;BME280;28444;48.056;14.408;2024-01-15T08:01:59;96321.28;;;-1.17;90.59
38912;BME280;28444;48.056;14.408;2024-01-15T08:04:26;96314.19;;;-1.14;91.15
38912;BME280;28444;48.056;14.408;2024-01-15T08:06:53;96307.28;;;-1.10;90.78
38912;BME280;28444;48.056;14.408;2024-01-15T08:09:20;96312.22;;;-1.14;90.99
38912;BME280;28444;48.056;14.408;2024-01-15T08:11:46;96313.66;;;-1.13;91.12
38912;BME280;28444;48.056;14.408;2024-01-15T08:14:13;96314.72;;;-1.03;90.24
38912;BME280;28444;48.056;14.408;2024-01-15T08:16:40;96309.03;;;-0.99;89.78
38912;BME280;28444;48.056;14.408;2024-01-15T08:19:07;96316.06;;;-0.96;89.73
38912;BME280;28444;48.056;14.408;2024-01-15T08:21:34;96310.09;;;-0.89;89.94
38912;BME280;28444;48.056;14.408;2024-01-15T08:24:01;96312.25;;;-0.87;89.42
38912;BME280;28444;48.056;14.408;2024-01-15T08:26:29;96317.31;;;-0.84;88.71
38912;BME280;28444;48.056;14.408;2024-01-15T08:28:56;96307.19;;;-0.91;89.67
38912;BME280;28444;48.056;14.408;2024-01-15T08:31:23;96318.16;;;-0.89;90.18
38912;BME280;28444;48.056;14.408;2024-01-15T08:33:50;96316.59;;;-0.84;90.25
38912;BME280;28444;48.056;14.408;2024-01-15T08:36:18;96309.47;;;-0.82;90.21
38912;BME280;28444;48.056;14.408;2024-01-15T08:38:44;96308.03;;;-0.83;89.80
38912;BME280;28444;48.056;14.408;2024-01-15T08:41:11;96313.59;;;-0.81;90.59
38912;BME280;28444;48.056;14.408;2024-01-15T08:43:38;96312.09;;;-0.76;90.02
38912;BME280;28444;48.056;14.408;2024-01-15T08:46:04;96307.75;;;-0.79;90.39
38912;BME280;28444;48.056;14.408;2024-01-15T08:48:31;96310.53;;;-0.71;89.82
38912;BME280;28444;48.056;14.408;2024-01-15T08:50:58;96311.47;;;-0.69;89.81
38912;BME280;28444;48.056;14.408;2024-01-15T08:53:24;96306.50;;;-0.65;88.37
38912;BME280;28444;48.056;14.408;2024-01-15T08:55:51;96302.78;;;-0.62;88.48
38912;BME280;28444;48.056;14.408;2024-01-15T08:58:18;96310.53;;;-0.58;88.51
38912;BME280;28444;48.056;14.408;2024-01-15T09:00:44;96317.03;;;-0.54;87.49
38912;BME280;28444;48.056;14.408;2024-01-15T09:03:11;96310.84;;;-0.49;87.26
38912;BME280;28444;48.056;14.408;2024-01-15T09:05:38;96309.00;;;-0.54;87.46
38912;BME280;28444;48.056;14.408;2024-01-15T09:08:05;96302.59;;;-0.51;87.27
38912;BME280;28444;48.056;14.408;2024-01-15T09:10:32;96304.34;;;-0.40;86.46
38912;BME280;28444;48.056;14.408;2024-01-15T09:12:59;96301.63;;;-0.27;85.43
38912;BME280;28444;48.056;14.408;2024-01-15T09:15:26;96309.78;;;-0.19;84.73
38912;BME280;28444;48.056;14.408;2024-01-15T09:17:54;96310.53;;;-0.32;84.95
38912;BME280;28444;48.056;14.408;2024-01-15T09:20:21;96301.75;;;-0.32;85.63
38912;BME280;28444;48.056;14.408;2024-01-15T09:22:47;96309.19;;;-0.38;85.61
38912;BME280;28444;48.056;14.408;2024-01-15T09:25:14;96296.88;;;-0.34;85.88
38912;BME280;28444;48.056;14.408;2024-01-15T09:27:41;96294.59;;;-0.30;84.16
38912;BME280;28444;48.056;14.408;2024-01-15T09:30:09;96299.78;;;-0.32;85.14
38912;BME280;28444;48.056;14.408;2024-01-15T09:32:36;96303.91;;;-0.31;84.53
38912;BME280;28444;48.056;14.408;2024-01-15T09:35:03;96295.84;;;-0.31;84.37
38912;BME280;28444;48.056;14.408;2024-01-15T09:37:30;96303.28;;;-0.23;83.87
38912;BME280;28444;48.056;14.408;2024-01-15T09:40:13;96294.59;;;-0.30;83.48
38912;BME280;28444;48.056;14.408;2024-01-15T09:42:44;96297.28;;;-0.30;83.75
38912;BME280;28444;48.056;14.408;2024-01-15T09:45:12;96295.44;;;-0.35;82.91
38912;BME280;28444;48.056;14.408;2024-01-15T09:47:40;96294.19;;;-0.34;83.12
38912;BME280;28444;48.056;14.408;2024-01-15T09:50:11;96299.56;;;-0.34;83.79
38912;BME280;28444;48.056;14.408;2024-01-15T09:52:39;96298.75;;;-0.29;83.72
38912;BME280;28444;48.056;14.408;2024-01-15T09:55:08;96299.97;;;-0.30;82.71
38912;BME280;28444;48.056;14.408;2024-01-15T09:57:36;96303.19;;;-0.31;82.96
38912;BME280;28444;48.056;14.408;2024-01-15T10:00:04;96292.97;;;-0.33;82.89
38912;BME280;28444;48.056;14.408;2024-01-15T10:02:33;96292.97;;;-0.46;82.27
38912;BME280;28444;48.056;14.408;2024-01-15T10:05:02;96293.16;;;-0.44;82.57
38912;BME280;28444;48.056;14.408;2024-01-15T10:07:30;96285.00;;;-0.38;82.10
38912;BME280;28444;48.056;14.408;2024-01-15T10:09:57;96278.09;;;-0.47;82.38
38912;BME280;28444;48.056;14.408;2024-01-15T10:12:24;96282.84;;;-0.40;82.32
38912;BME280;28444;48.056;14.408;2024-01-15T10:14:54;96277.47;;;-0.40;82.87
38912;BME280;28444;48.056;14.408;2024-01-15T10:17:21;96277.88;;;-0.36;82.64
38912;BME280;28444;48.056;14.408;2024-01-15T10:19:47;96278.50;;;-0.43;82.61
38912;BME280;28444;48.056;14.408;2024-01-15T10:22:16;96265.06;;;-0.43;82.44
38912;BME280;28444;48.056;14.408;2024-01-15T10:24:45;96268.47;;;-0.42;83.26
38912;BME280;28444;48.056;14.408;2024-01-15T10:27:14;96271.88;;;-0.42;83.33
38912;BME280;28444;48.056;14.408;2024-01-15T10:29:41;96268.44;;;-0.29;82.67
38912;BME280;28444;48.056;14.408;2024-01-15T10:32:09;96262.75;;;-0.26;82.32
38912;BME280;28444;48.056;14.408;2024-01-15T10:34:40;96275.69;;;-0.24;82.61
38912;BME280;28444;48.056;14.408;2024-01-15T10:37:09;96269.22;;;-0.08;81.49
38912;BME280;28444;48.056;14.408;2024-01-15T10:39:36;96275.81;;;0.05;80.75
38912;BME280;28444;48.056;14.408;2024-01-15T10:42:04;96276.63;;;0.13;81.37
38912;BME280;28444;48.056;14.408;2024-01-15T10:44:31;96268.63;;;0.20;81.09
38912;BME280;28444;48.056;14.408;2024-01-15T10:46:58;96262.75;;;0.22;80.35
38912;BME280;28444;48.056;14.408;2024-01-15T10:49:24;96271.72;;;0.24;80.38
38912;BME280;28444;48.056;14.408;2024-01-15T10:52:00;96274.41;;;0.24;79.91
38912;BME280;28444;48.056;14.408;2024-01-15T10:54:27;96277.09;;;0.24;79.64
38912;BME280;28444;48.056;14.408;2024-01-15T10:56:56;96276.91;;;0.22;79.36
38912;BME280;28444;48.056;14.408;2024-01-15T10:59:23;96277.03;;;0.17;78.93
38912;BME280;28444;48.056;14.408;2024-01-15T11:01:51;96280.97;;;0.16;79.83
38912;BME280;28444;48.056;14.408;2024-01-15T11:04:22;96277.34;;;0.13;79.93
38912;BME280;28444;48.056;14.408;2024-01-15T11:06:52;96273.31;;;0.07;80.85
38912;BME280;28444;48.056;14.408;2024-01-15T11:09:23;96268.34;;;0.11;79.62
38912;BME280;28444;48.056;14.408;2024-01-15T11:12:09;96271.25;;;0.13;79.14
38912;BME280;28444;48.056;14.408;2024-01-15T11:14:41;96262.06;;;0.08;79.34
38912;BME280;28444;48.056;14.408;2024-01-15T11:17:11;96259.16;;;0.06;78.95
38912;BME280;28444;48.056;14.408;2024-01-15T11:19:43;96263.56;;;0.17;79.44
38912;BME280;28444;48.056;14.408;2024-01-15T11:25:01;96262.00;;;0.21;79.51
38912;BME280;28444;48.056;14.408;2024-01-15T11:27:45;96262.22;;;0.23;79.08
38912;BME280;28444;48.056;14.408;2024-01-15T11:30:24;96250.09;;;0.30;79.33
38912;BME280;28444;48.056;14.408;2024-01-15T11:32:52;96250.75;;;0.23;78.81
38912;BME280;28444;48.056;14.408;2024-01-15T11:35:19;96255.47;;;0.30;78.55
38912;BME280;28444;48.056;14.408;2024-01-15T11:43:03;96231.66;;;0.34;77.21
38912;BME280;28444;48.056;14.408;2024-01-15T11:45:30;96235.22;;;0.29;77.03
38912;BME280;28444;48.056;14.408;2024-01-15T11:50:34;96236.50;;;0.36;77.03
38912;BME280;28444;48.056;14.408;2024-01-15T11:53:02;96230.84;;;0.47;77.95
38912;BME280;28444;48.056;14.408;2024-01-15T11:55:38;96222.00;;;0.39;76.16
38912;BME280;28444;48.056;14.408;2024-01-15T11:58:09;96220.56;;;0.38;75.92
38912;BME280;28444;48.056;14.408;2024-01-15T12:00:47;96217.88;;;0.38;76.02
38912;BME280;28444;48.056;14.408;2024-01-15T12:03:15;96216.22;;;0.35;75.32
38912;BME280;28444;48.056;14.408;2024-01-15T12:05:42;96215.84;;;0.31;74.49
38912;BME280;28444;48.056;14.408;2024-01-15T12:08:09;96213.28;;;0.25;75.82
38912;BME280;28444;48.056;14.408;2024-01-15T12:10:40;96210.47;;;0.31;75.82
38912;BME280;28444;48.056;14.408;2024-01-15T12:13:13;96213.53;;;0.35;74.87
38912;BME280;28444;48.056;14.408;2024-01-15T12:15:44;96206.91;;;0.36;74.12
38912;BME280;28444;48.056;14.408;2024-01-15T12:18:13;96195.38;;;0.28;73.05
38912;BME280;28444;48.056;14.408;2024-01-15T12:20:42;96198.22;;;0.22;73.47
38912;BME280;28444;48.056;14.408;2024-01-15T12:23:14;96195.19;;;0.26;73.34
38912;BME280;28444;48.056;14.408;2024-01-15T12:25:41;96191.03;;;0.24;74.33
38912;BME280;28444;48.056;14.408;2024-01-15T12:28:08;96185.28;;;0.20;74.21
38912;BME280;28444;48.056;14.408;2024-01-15T12:30:35;96173.47;;;0.23;74.15
38912;BME280;28444;48.056;14.408;2024-01-15T12:33:04;96169.91;;;0.29;74.41
38912;BME280;28444;48.056;14.408;2024-01-15T12:35:33;96175.38;;;0.15;74.63
38912;BME280;28444;48.056;14.408;2024-01-15T12:38:00;96172.44;;;0.27;74.81
38912;BME280;28444;48.056;14.408;2024-01-15T12:40:32;96172.59;;;0.29;74.40
38912;BME280;28444;48.056;14.408;2024-01-15T12:43:00;96166.13;;;0.24;75.31
38912;BME280;28444;48.056;14.408;2024-01-15T12:45:27;96175.88;;;0.14;75.69
38912;BME280;28444;48.056;14.408;2024-01-15T12:47:54;96171.00;;;0.26;75.62
38912;BME280;28444;48.056;14.408;2024-01-15T12:50:24;96176.16;;;0.23;75.28
38912;BME280;28444;48.056;14.408;2024-01-15T12:52:51;96177.03;;;0.18;76.03
38912;BME280;28444;48.056;14.408;2024-01-15T12:55:17;96178.31;;;0.25;75.19
38912;BME280;28444;48.056;14.408;2024-01-15T12:57:44;96169.91;;;0.29;74.72
38912;BME280;28444;48.056;14.408;2024-01-15T13:00:12;96174.25;;;0.32;75.68
38912;BME280;28444;48.056;14.408;2024-01-15T13:02:43;96172.16;;;0.38;75.67
38912;BME280;28444;48.056;14.408;2024-01-15T13:05:11;96171.88;;;0.28;74.62